Time;durP1;ratioP1;P1;durP2;ratioP2;P2;SDS_P1;SDS_P2;PMS_P1;PMS_P2;Temp;Humidity;BMP_temperature;BMP_pressure;BME280_temperature;BME280_humidity;BME280_pressure;Samples;Min_cycle;Max_cycle;Signal;HPM_P1;HPM_P2
2022/06/25 00:06:23;;;;;;;18.90;15.77;;;;;;;20.57;97.70;100681.56;20444113;28;20040;-65
2022/06/25 00:16:47;;;;;;;18.50;16.30;;;;;;;20.51;99.09;100692.84;20459083;28;20047;-64
2022/06/25 00:27:09;;;;;;;;;;;;;;;20.52;98.79;100698.97;20439341;28;20044;-66
2022/06/25 00:37:31;;;;;;;;;;;;;;;20.53;98.17;100704.06;20450826;28;19930;-65
2022/06/25 00:47:54;;;;;;;;;;;;;;;20.46;100.00;100719.00;20460785;28;20442;-64
2022/06/25 00:58:19;;;;;;;;;;;;;;;20.39;98.81;100714.50;20438095;28;19933;-65
2022/06/25 01:08:40;;;;;;;;;;;;;;;20.37;100.00;100720.97;20458498;28;19922;-64
2022/06/25 01:19:09;;;;;;;;;;;;;;;20.31;98.37;100726.91;20458172;28;19923;-65
2022/06/25 01:29:30;;;;;;;;;;;;;;;20.27;99.95;100737.00;20456067;28;19923;-65
2022/06/25 01:39:52;;;;;;;;;;;;;;;20.22;99.61;100749.09;20453963;28;19923;-65
2022/06/25 01:50:14;;;;;;;;;;;;;;;20.26;97.93;100766.28;20476424;28;19922;-64
2022/06/25 02:00:36;;;;;;;;;;;;;;;20.16;100.00;100770.91;20470500;28;19934;-65
2022/06/25 02:10:58;;;;;;;;;;;;;;;20.07;99.89;100777.97;20471600;28;19978;-65
2022/06/25 02:21:19;;;;;;;;;;;;;;;20.00;100.00;100762.91;20459291;28;19926;-64
2022/06/25 02:31:41;;;;;;;;;;;;;;;20.02;99.94;100784.75;20448935;28;19923;-64
2022/06/25 02:42:02;;;;;;;;;;;;;;;19.97;100.00;100782.59;20484640;28;19926;-64
2022/06/25 02:52:24;;;;;;;;;;;;;;;19.98;99.92;100794.00;20443483;28;19922;-66
2022/06/25 03:02:45;;;;;;;;;;;;;;;19.98;100.00;100808.06;20441085;28;20404;-66
2022/06/25 03:13:07;;;;;;;;;;;;;;;20.00;100.00;100818.47;20437740;28;19922;-64
2022/06/25 03:23:28;;;;;;;;;;;;;;;20.02;97.07;100819.16;20466875;28;20021;-66
2022/06/25 03:33:49;;;;;;;;;;;;;;;20.00;96.92;100823.78;20447246;28;19930;-64
2022/06/25 03:44:11;;;;;;;;;;;;;;;19.89;96.82;100837.25;20443304;28;19930;-64
2022/06/25 03:54:32;;;;;;;;;;;;;;;19.82;98.16;100838.88;20439899;28;19923;-65
2022/06/25 04:04:54;;;;;;;;;;;;;;;19.78;97.02;100845.47;20436507;28;20330;-65
2022/06/25 04:15:15;;;;;;;;;;;;;;;19.75;99.06;100840.50;20437107;28;19945;-65
2022/06/25 04:25:37;;;;;;;;;;;;;;;19.76;96.32;100852.75;20439492;28;19945;-65
2022/06/25 04:35:59;;;;;;;;;;;;;;;19.69;97.73;100854.34;20437457;28;19923;-65
2022/06/25 04:46:20;;;;;;;;;;;;;;;19.81;96.74;100868.97;20438595;28;19927;-65
2022/06/25 04:56:42;;;;;;;;;;;;;;;19.96;95.88;100875.31;20466009;28;20025;-65
2022/06/25 05:07:04;;;;;;;;;;;;;;;20.15;96.00;100880.44;20447134;28;19926;-65
2022/06/25 05:17:25;;;;;;;;;;;;;;;20.41;93.26;100882.84;20443961;28;20402;-65
2022/06/25 05:27:47;;;;;;;;;;;;;;;20.61;93.36;100888.72;20455174;28;20284;-65
2022/06/25 05:38:09;;;;;;;;;;;;;;;20.76;93.26;100893.25;20478665;28;19933;-65
2022/06/25 05:48:31;;;;;;;;;;;;;;;20.96;92.65;100899.91;20438685;28;19926;-66
2022/06/25 05:58:52;;;;;;;;;;;;;;;21.12;90.81;100905.25;20445150;28;20667;-65
2022/06/25 06:09:14;;;;;;;;;;;;;;;21.34;89.47;100915.22;20476723;28;19923;-65
2022/06/25 06:19:35;;;;;;;;;;;;;;;21.51;88.30;100923.03;20456873;28;19942;-66
2022/06/25 06:29:56;;;;;;;;;;;;;;;21.82;88.58;100920.56;20451931;28;19923;-65
2022/06/25 06:40:18;;;;;;;;;;;;;;;21.97;85.94;100918.88;20462278;28;19926;-65
2022/06/25 06:50:39;;;;;;;;;;;;;;;22.25;84.41;100930.75;20445408;28;19945;-65
2022/06/25 07:01:01;;;;;;;;;;;;;;;22.59;83.45;100935.59;20444105;28;19929;-66
2022/06/25 07:11:29;;;;;;;;;;;;;;;22.70;81.92;100940.56;20441712;28;20061;-65
2022/06/25 07:21:52;;;;;;;9.85;6.18;;;;;;;22.90;82.57;100944.44;20451562;28;20618;-65
2022/06/25 07:32:13;;;;;;;9.15;5.40;;;;;;;23.12;81.05;100946.34;20449053;28;20054;-64
2022/06/25 07:42:35;;;;;;;7.32;4.70;;;;;;;23.31;79.85;100955.69;20439718;28;20053;-65
2022/06/25 07:52:56;;;;;;;4.60;3.70;;;;;;;23.60;78.41;100959.28;20440719;28;20059;-64
2022/06/25 08:03:18;;;;;;;5.82;3.25;;;;;;;23.75;78.34;100970.78;20441987;28;20054;-64
2022/06/25 08:13:40;;;;;;;7.90;3.05;;;;;;;23.86;77.13;100967.75;20442907;28;20066;-65
2022/06/25 08:24:02;;;;;;;3.60;2.65;;;;;;;24.06;76.73;100974.22;20452768;28;20047;-65
2022/06/25 08:34:23;;;;;;;6.70;2.38;;;;;;;24.26;75.52;100970.00;20446044;28;20058;-66
2022/06/25 08:44:45;;;;;;;2.88;1.55;;;;;;;24.54;74.78;100970.03;20442482;28;20039;-64
2022/06/25 08:55:07;;;;;;;6.03;1.80;;;;;;;24.74;72.87;100971.13;20450504;28;20063;-62
2022/06/25 09:05:32;;;;;;;1.88;1.58;;;;;;;24.97;71.01;100969.16;20442877;28;20058;-61
2022/06/25 09:15:53;;;;;;;2.70;1.40;;;;;;;24.97;73.55;100971.81;20449564;28;20055;-66
2022/06/25 09:26:15;;;;;;;2.58;1.50;;;;;;;25.31;71.72;100976.53;20435382;28;20051;-62
2022/06/25 09:36:37;;;;;;;4.57;1.80;;;;;;;25.49;70.73;100983.09;20450230;28;20611;-62
2022/06/25 09:47:00;;;;;;;3.58;1.20;;;;;;;25.59;71.21;100978.28;20478564;28;20055;-63
2022/06/25 09:57:24;;;;;;;3.13;1.45;;;;;;;25.88;67.94;100978.16;20460574;28;20107;-65
2022/06/25 10:08:00;;;;;;;4.45;1.40;;;;;;;26.19;66.52;100986.63;20482510;28;20062;-66
2022/06/25 10:18:22;;;;;;;4.68;1.35;;;;;;;26.25;66.99;100985.81;20423292;28;20463;-69
2022/06/25 10:28:45;;;;;;;1.88;1.02;;;;;;;26.52;67.83;100983.16;20543861;28;20058;-68
2022/06/25 10:39:22;;;;;;;2.65;1.33;;;;;;;27.01;58.70;100983.75;20529125;28;20062;-68
2022/06/25 10:49:43;;;;;;;2.55;1.00;;;;;;;27.50;64.16;100986.00;20527311;28;20051;-69
2022/06/25 11:00:06;;;;;;;1.45;0.93;;;;;;;26.93;63.47;100994.66;20530918;28;20055;-68
2022/06/25 11:10:35;;;;;;;1.27;0.70;;;;;;;26.83;56.24;100989.69;20516283;28;20055;-68
2022/06/25 11:20:57;;;;;;;;;;;;;;;27.65;50.82;100985.84;20512333;28;20479;-69
2022/06/25 11:31:22;;;;;;;2.28;1.00;;;;;;;27.53;56.54;100998.16;20507764;28;19922;-68
2022/06/25 11:41:50;;;;;;;1.05;0.52;;;;;;;27.69;55.69;101005.84;20501067;28;20783;-67
2022/06/25 11:52:13;;;;;;;2.92;0.80;;;;;;;28.00;58.45;101006.06;20497459;28;20051;-67
2022/06/25 12:02:35;;;;;;;1.63;0.80;;;;;;;27.56;57.52;101006.63;20507245;28;20054;-69
2022/06/25 12:12:57;;;;;;;1.48;0.70;;;;;;;27.58;58.95;101003.75;20512431;28;20055;-68
2022/06/25 12:23:18;;;;;;;3.28;1.00;;;;;;;27.55;60.00;100988.06;20514550;28;20061;-67
2022/06/25 12:33:40;;;;;;;1.83;0.90;;;;;;;27.54;60.50;100997.13;20525728;28;20054;-71
2022/06/25 12:44:12;;;;;;;0.60;0.60;;;;;;;27.47;52.85;100996.31;20517213;28;20055;-69
2022/06/25 12:54:42;;;;;;;2.58;0.90;;;;;;;27.69;53.70;100995.13;20496890;28;20701;-69
2022/06/25 13:05:04;;;;;;;1.17;0.90;;;;;;;27.78;57.76;100994.72;20526769;28;20144;-68
2022/06/25 13:15:26;;;;;;;3.60;1.00;;;;;;;27.95;55.24;100995.13;20523582;28;20432;-64
2022/06/25 13:25:48;;;;;;;2.35;0.90;;;;;;;28.00;59.29;100976.56;20519910;28;20046;-69
2022/06/25 13:36:09;;;;;;;3.03;1.00;;;;;;;27.94;58.30;100988.13;20534877;28;20043;-67
2022/06/25 13:46:31;;;;;;;4.50;1.05;;;;;;;27.91;58.41;100989.34;20535803;28;20058;-67
2022/06/25 13:56:54;;;;;;;6.18;1.00;;;;;;;27.81;55.84;100982.75;20543316;28;20055;-68
2022/06/25 14:07:16;;;;;;;2.97;1.00;;;;;;;27.96;56.17;100981.53;20564552;28;20055;-67
2022/06/25 14:17:37;;;;;;;1.35;1.00;;;;;;;28.11;57.89;100975.94;20531296;28;20055;-67
2022/06/25 14:28:05;;;;;;;1.08;0.80;;;;;;;28.44;58.36;100962.28;20527806;28;20043;-67
2022/06/25 14:49:27;;;;;;;2.65;1.00;;;;;;;28.35;59.66;100964.59;20477934;28;20047;-67
2022/06/25 14:59:49;;;;;;;1.42;1.00;;;;;;;28.24;59.11;100957.16;20536976;28;20435;-67
2022/06/25 15:10:11;;;;;;;1.67;1.10;;;;;;;28.24;57.50;100957.16;20520320;28;20057;-68
2022/06/25 15:20:33;;;;;;;2.22;1.20;;;;;;;28.42;58.45;100955.50;20530374;28;20214;-66
2022/06/25 15:30:55;;;;;;;2.45;1.13;;;;;;;28.38;57.50;100958.81;20531576;28;20047;-67
2022/06/25 15:41:16;;;;;;;3.75;1.20;;;;;;;28.12;58.48;100951.59;20513390;28;20051;-65
2022/06/25 15:51:45;;;;;;;4.60;1.50;;;;;;;28.02;58.36;100947.69;20541222;28;20063;-68
2022/06/25 16:02:09;;;;;;;1.75;1.17;;;;;;;27.80;59.94;100944.41;20521744;28;20055;-66
2022/06/25 16:12:30;;;;;;;2.95;1.30;;;;;;;27.77;59.75;100949.38;20530570;28;20046;-65
2022/06/25 16:22:52;;;;;;;6.43;1.30;;;;;;;27.80;59.22;100940.94;20524100;28;20074;-63
2022/06/25 16:33:14;;;;;;;2.00;1.20;;;;;;;27.75;59.54;100951.44;20517559;28;20074;-63
2022/06/25 16:44:01;;;;;;;;;;;;;;;27.57;54.47;100935.09;20544148;28;20837;-63
2022/06/25 16:54:25;;;;;;;6.15;1.52;;;;;;;27.59;57.91;100935.72;20542433;28;19929;-61
2022/06/25 17:04:46;;;;;;;3.08;1.35;;;;;;;27.59;59.60;100938.41;20526715;28;20047;-62
2022/06/25 17:15:09;;;;;;;1.88;1.27;;;;;;;27.46;59.73;100943.75;20551129;28;20058;-63
2022/06/25 17:25:30;;;;;;;2.20;1.30;;;;;;;27.45;58.74;100944.78;20535837;28;20513;-63
2022/06/25 17:35:52;;;;;;;3.92;1.70;;;;;;;27.30;60.25;100952.19;20540025;28;20165;-63
2022/06/25 17:46:13;;;;;;;2.95;1.60;;;;;;;27.11;62.42;100960.16;20531592;28;20094;-63
2022/06/25 17:56:35;;;;;;;6.10;1.90;;;;;;;26.88;64.59;100963.16;20541841;28;20051;-63
2022/06/25 18:06:57;;;;;;;3.38;1.65;;;;;;;26.81;65.32;100978.34;20528850;28;20054;-64
2022/06/25 18:17:19;;;;;;;3.00;1.80;;;;;;;26.55;66.37;100983.56;20518532;28;20074;-65
2022/06/25 18:27:45;;;;;;;5.63;1.70;;;;;;;26.30;67.12;100983.38;20508630;28;20047;-65
2022/06/25 18:38:07;;;;;;;10.57;2.05;;;;;;;26.10;67.83;100967.22;20539407;28;20051;-64
2022/06/25 18:48:28;;;;;;;2.58;1.88;;;;;;;25.88;67.71;100972.81;20545623;28;20089;-63
2022/06/25 18:58:50;;;;;;;3.90;2.40;;;;;;;25.73;68.19;100967.50;20555951;28;20049;-64
2022/06/25 19:09:12;;;;;;;5.43;2.13;;;;;;;25.80;68.01;100965.75;20549135;28;20051;-64
2022/06/25 19:19:33;;;;;;;6.65;2.67;;;;;;;25.68;68.64;100974.44;20553210;28;20051;-64
2022/06/25 19:29:55;;;;;;;4.35;2.38;;;;;;;25.61;68.95;100998.41;20538180;28;20080;-63
2022/06/25 19:40:18;;;;;;;5.68;2.33;;;;;;;25.45;69.46;100997.84;20549020;28;20063;-65
2022/06/25 19:50:39;;;;;;;5.18;2.38;;;;;;;25.37;70.43;101008.63;20545904;28;20039;-65
2022/06/25 20:01:01;;;;;;;3.53;2.20;;;;;;;25.32;70.48;101005.72;20520346;28;20051;-64
2022/06/25 20:11:23;;;;;;;3.58;2.22;;;;;;;25.26;71.18;100993.13;20519997;28;20691;-65
2022/06/25 20:21:46;;;;;;;5.28;2.53;;;;;;;25.13;71.98;100995.66;20521718;28;20049;-64
2022/06/25 20:32:09;;;;;;;3.72;3.28;;;;;;;25.07;73.03;100995.53;20523465;28;20055;-65
2022/06/25 20:42:31;;;;;;;6.68;3.13;;;;;;;24.98;73.06;101000.16;20519060;28;20099;-64
2022/06/25 20:52:52;;;;;;;3.88;3.03;;;;;;;24.91;72.88;100996.56;20540079;28;20053;-64
2022/06/25 21:13:54;;;;;;;4.55;2.67;;;;;;;24.85;74.72;100984.00;20548049;28;20105;-64
2022/06/25 21:24:16;;;;;;;6.18;3.22;;;;;;;24.80;73.79;100977.56;20537154;28;20370;-65
2022/06/25 21:34:38;;;;;;;5.82;2.78;;;;;;;24.72;74.74;100973.16;20548311;28;20042;-67
2022/06/25 21:44:59;;;;;;;3.83;2.95;;;;;;;24.67;73.55;100969.41;20510309;28;20058;-68
2022/06/25 21:55:21;;;;;;;4.65;2.85;;;;;;;24.55;74.35;100955.69;20534041;28;20066;-67
2022/06/25 22:05:42;;;;;;;3.97;3.47;;;;;;;24.50;73.87;100952.75;20508981;28;20042;-68
2022/06/25 22:16:04;;;;;;;5.65;3.92;;;;;;;24.40;74.94;100938.84;20519050;28;20083;-68
2022/06/25 22:26:26;;;;;;;6.65;4.38;;;;;;;24.36;74.42;100945.56;20537288;28;20651;-67
2022/06/25 22:36:51;;;;;;;5.07;4.00;;;;;;;24.27;75.44;100947.69;20522452;28;20063;-67
2022/06/25 22:47:12;;;;;;;6.20;4.40;;;;;;;24.16;76.16;100953.47;20527024;28;21136;-67
2022/06/25 22:57:34;;;;;;;5.05;4.07;;;;;;;24.11;76.09;100951.34;20515348;28;20051;-67
2022/06/25 23:07:56;;;;;;;5.82;4.38;;;;;;;24.03;75.29;100953.25;20532084;28;20054;-67
2022/06/25 23:18:18;;;;;;;4.82;4.38;;;;;;;23.89;77.20;100946.91;20529254;28;20047;-67
2022/06/25 23:28:40;;;;;;;4.85;4.43;;;;;;;23.87;76.32;100948.91;20526247;28;20510;-67
2022/06/25 23:39:01;;;;;;;5.03;4.50;;;;;;;23.76;77.29;100946.69;20524724;28;20083;-67
2022/06/25 23:49:23;;;;;;;7.10;3.97;;;;;;;23.74;79.24;100942.50;20526115;28;20050;-67
2022/06/25 23:59:45;;;;;;;4.65;4.20;;;;;;;23.69;77.89;100950.22;20535476;28;20057;-66
